createdAt,value
2023-03-21T00:33:29.499Z,9.03
2023-03-21T00:38:34.476Z,10.31
2023-03-21T00:43:38.192Z,10.12
2023-03-21T00:48:43.665Z,10.30
2023-03-21T00:53:51.757Z,11.12
2023-03-21T00:58:57.304Z,9.56
2023-03-21T01:04:05.301Z,10.25
2023-03-21T01:09:15.414Z,11.27
2023-03-21T01:14:23.347Z,10.93
2023-03-21T01:19:44.168Z,10.23
2023-03-21T01:24:58.588Z,11.01
2023-03-21T01:30:17.372Z,10.74
2023-03-21T01:35:25.797Z,10.17
2023-03-21T01:40:51.321Z,10.71
2023-03-21T01:53:36.225Z,10.76
2023-03-21T02:05:55.747Z,10.17
2023-03-21T02:11:41.056Z,11.45
2023-03-21T02:23:33.559Z,11.32
2023-03-21T02:28:40.776Z,11.55
2023-03-21T02:34:04.654Z,9.49
2023-03-21T02:39:21.542Z,11.05
2023-03-21T02:44:39.567Z,11.42
2023-03-21T02:49:47.727Z,9.43
2023-03-21T02:54:56.498Z,10.77
2023-03-21T03:00:16.535Z,10.52
2023-03-21T03:05:33.579Z,9.67
2023-03-21T03:10:52.030Z,10.44
2023-03-21T03:16:09.467Z,9.39
2023-03-21T03:21:26.236Z,9.13
2023-03-21T03:27:05.301Z,11.50
2023-03-21T03:32:39.465Z,11.00
2023-03-21T03:37:47.508Z,11.26
2023-03-21T03:43:08.314Z,10.15
2023-03-21T03:48:39.096Z,9.44
2023-03-21T03:53:58.596Z,8.83
2023-03-21T03:59:09.648Z,10.55
2023-03-21T04:04:38.464Z,9.54
2023-03-21T04:09:48.667Z,10.34
2023-03-21T04:15:47.708Z,8.80
2023-03-21T04:21:03.445Z,11.16
2023-03-21T04:26:18.175Z,9.55
2023-03-21T04:32:19.767Z,9.80
2023-03-21T04:37:33.953Z,9.26
2023-03-21T04:42:38.248Z,10.73
2023-03-21T04:47:42.704Z,10.23
2023-03-21T04:52:45.869Z,9.82
2023-03-21T04:57:49.716Z,11.06
2023-03-21T05:02:54.355Z,11.06
2023-03-21T05:07:57.338Z,11.06
2023-03-21T05:13:03.798Z,11.02
2023-03-21T05:18:13.202Z,10.95
2023-03-21T05:31:13.545Z,10.54
2023-03-21T05:36:18.265Z,10.42
2023-03-21T05:41:23.590Z,9.92
2023-03-21T05:46:29.727Z,9.42
2023-03-21T05:51:34.619Z,10.62
2023-03-21T05:56:37.945Z,10.71
2023-03-21T06:01:43.828Z,10.97
2023-03-21T06:07:05.780Z,10.62
2023-03-21T06:12:13.774Z,9.97
2023-03-21T06:17:48.222Z,11.03
2023-03-21T06:22:55.351Z,10.45
2023-03-21T06:33:46.355Z,10.54
2023-03-21T06:38:51.004Z,9.84
2023-03-21T06:43:54.876Z,10.82
2023-03-21T06:48:58.231Z,11.38
2023-03-21T06:54:06.153Z,10.66
2023-03-21T06:59:20.950Z,11.42
2023-03-21T07:04:31.092Z,11.42
2023-03-21T07:09:35.707Z,11.44
2023-03-21T07:14:41.078Z,11.42
2023-03-21T07:19:44.946Z,10.15
2023-03-21T07:25:02.298Z,11.10
2023-03-21T07:30:13.971Z,11.49
2023-03-21T07:35:18.866Z,11.65
2023-03-21T07:40:23.635Z,11.45
2023-03-21T07:45:29.276Z,10.95
2023-03-21T07:50:35.960Z,11.80
2023-03-21T07:55:42.842Z,11.74
2023-03-21T08:00:48.837Z,9.70
2023-03-21T08:06:04.694Z,11.84
2023-03-21T08:11:13.053Z,11.81
2023-03-21T08:17:01.601Z,9.23
2023-03-21T08:22:06.653Z,11.86
2023-03-21T08:27:10.688Z,10.06
2023-03-21T08:32:13.453Z,9.48
2023-03-21T08:37:16.652Z,11.89
2023-03-21T08:42:21.992Z,11.95
2023-03-21T08:47:25.701Z,12.01
2023-03-21T08:52:29.095Z,11.92
2023-03-21T08:57:33.309Z,11.07
2023-03-21T09:02:36.076Z,10.76
2023-03-21T09:07:39.655Z,10.60
2023-03-21T09:12:44.483Z,11.94
2023-03-21T09:17:50.004Z,10.68
2023-03-21T09:22:53.247Z,11.19
2023-03-21T09:27:58.096Z,12.15
2023-03-21T09:33:04.022Z,11.39
2023-03-21T09:38:06.983Z,11.34
2023-03-21T09:43:24.992Z,12.32
2023-03-21T09:48:37.628Z,12.45
2023-03-21T09:53:44.432Z,11.66
2023-03-21T09:58:53.245Z,12.59
2023-03-21T10:04:00.347Z,12.13
2023-03-21T10:09:09.220Z,12.14
2023-03-21T10:14:19.583Z,12.53
2023-03-21T10:19:23.416Z,11.57
2023-03-21T10:24:29.192Z,11.42
2023-03-21T10:29:43.637Z,11.36
2023-03-21T10:34:49.012Z,12.08
2023-03-21T10:39:54.636Z,12.38
2023-03-21T10:44:58.793Z,12.42
2023-03-21T10:50:08.414Z,12.54
2023-03-21T10:55:21.347Z,12.62
2023-03-21T11:00:30.317Z,12.33
2023-03-21T11:05:40.213Z,12.01
2023-03-21T11:10:53.569Z,12.60
2023-03-21T11:16:06.126Z,11.12
2023-03-21T11:21:11.611Z,12.80
2023-03-21T11:26:23.980Z,12.06
2023-03-21T11:31:43.038Z,12.81
2023-03-21T11:36:51.978Z,13.16
2023-03-21T11:41:54.720Z,13.13
2023-03-21T11:46:59.593Z,12.32
2023-03-21T11:52:18.724Z,13.03
2023-03-21T11:57:29.568Z,13.03
2023-03-21T12:03:08.851Z,11.96
2023-03-21T12:08:27.877Z,12.63
2023-03-21T12:13:45.811Z,13.49
2023-03-21T12:19:04.395Z,13.43
2023-03-21T12:24:13.537Z,13.21
2023-03-21T12:29:34.797Z,12.75
2023-03-21T12:34:57.802Z,13.56
2023-03-21T12:40:10.880Z,12.94
2023-03-21T12:45:18.704Z,13.72
2023-03-21T12:50:27.255Z,13.86
2023-03-21T12:55:32.826Z,13.80
2023-03-21T13:00:43.089Z,13.87
2023-03-21T13:05:51.419Z,12.12
2023-03-21T13:10:55.415Z,12.67
2023-03-21T13:16:12.237Z,13.11
2023-03-21T13:21:21.656Z,13.17
2023-03-21T13:26:36.800Z,14.38
2023-03-21T13:31:52.041Z,14.06
2023-03-21T13:36:57.795Z,14.58
2023-03-21T13:42:06.389Z,14.73
2023-03-21T13:47:28.602Z,14.73
2023-03-21T13:52:32.703Z,14.52
2023-03-21T13:57:39.875Z,14.91
2023-03-21T14:02:57.385Z,14.38
2023-03-21T14:08:15.328Z,14.63
2023-03-21T14:13:33.062Z,13.86
2023-03-21T14:18:54.181Z,14.51
2023-03-21T14:24:02.165Z,14.47
2023-03-21T14:29:12.333Z,13.28
2023-03-21T14:34:21.322Z,14.25
2023-03-21T14:39:29.099Z,14.18
2023-03-21T14:44:44.128Z,13.75
2023-03-21T14:49:57.846Z,12.98
2023-03-21T14:55:18.536Z,13.80
2023-03-21T15:06:04.825Z,13.23
2023-03-21T15:11:41.011Z,12.48
2023-03-21T15:16:45.682Z,14.93
2023-03-21T15:21:55.130Z,14.85
2023-03-21T15:27:06.540Z,14.80
2023-03-21T15:32:18.562Z,13.82
2023-03-21T15:37:25.237Z,13.78
2023-03-21T15:43:15.390Z,13.87
2023-03-21T15:48:38.767Z,14.52
2023-03-21T15:53:48.911Z,14.35
2023-03-21T15:58:55.331Z,13.90
2023-03-21T16:04:13.281Z,12.87
2023-03-21T16:09:24.893Z,14.30
2023-03-21T16:14:31.587Z,14.81
2023-03-21T16:19:43.619Z,14.40
2023-03-21T16:25:04.079Z,14.43
2023-03-21T16:30:18.972Z,14.02
2023-03-21T16:35:32.550Z,14.62
2023-03-21T16:40:42.137Z,12.30
2023-03-21T16:45:48.422Z,14.34
2023-03-21T16:50:55.504Z,14.24
2023-03-21T16:56:04.036Z,14.05
2023-03-21T17:01:25.849Z,14.08
2023-03-21T17:06:34.835Z,13.78
2023-03-21T17:11:42.286Z,11.73
2023-03-21T17:16:49.615Z,13.05
2023-03-21T17:21:57.111Z,13.28
2023-03-21T17:27:15.631Z,12.51
2023-03-21T17:32:37.054Z,13.99
2023-03-21T17:37:49.992Z,13.94
2023-03-21T17:43:00.959Z,13.97
2023-03-21T17:48:06.727Z,13.44
2023-03-21T17:53:15.211Z,13.83
2023-03-21T17:58:22.876Z,11.84
2023-03-21T18:03:30.277Z,13.35
2023-03-21T18:08:55.123Z,12.39
2023-03-21T18:14:16.237Z,13.42
2023-03-21T18:19:23.304Z,12.65
2023-03-21T18:24:29.710Z,12.53
2023-03-21T18:35:03.964Z,13.50
2023-03-21T18:40:13.763Z,13.19
2023-03-21T18:45:44.013Z,13.69
2023-03-21T18:51:10.983Z,13.37
2023-03-21T19:03:18.832Z,13.05
2023-03-21T19:08:30.425Z,12.60
2023-03-21T19:13:34.401Z,13.52
2023-03-21T19:25:40.157Z,12.66
2023-03-21T19:31:41.098Z,13.60
2023-03-21T19:36:52.647Z,13.10
2023-03-21T19:42:15.002Z,12.82
2023-03-21T19:47:20.746Z,12.70
2023-03-21T19:52:26.436Z,13.43
2023-03-21T19:57:31.115Z,13.10
2023-03-21T20:02:36.911Z,12.30
2023-03-21T20:07:40.220Z,12.04
2023-03-21T20:12:45.037Z,12.14
2023-03-21T20:17:50.110Z,12.89
2023-03-21T20:23:06.216Z,11.14
2023-03-21T20:28:20.134Z,13.04
2023-03-21T20:33:29.704Z,13.14
2023-03-21T20:38:35.514Z,12.68
2023-03-21T20:49:06.570Z,10.67
2023-03-21T20:54:09.871Z,12.53
2023-03-21T20:59:24.507Z,12.66
2023-03-21T21:04:57.312Z,12.56
2023-03-21T21:10:12.313Z,13.12
2023-03-21T21:15:33.823Z,13.15
2023-03-21T21:20:38.441Z,12.26
2023-03-21T21:25:42.852Z,13.18
2023-03-21T21:30:57.328Z,13.20
2023-03-21T21:36:10.711Z,13.25
2023-03-21T21:41:26.730Z,13.16
2023-03-21T21:46:33.178Z,12.79
2023-03-21T21:51:39.122Z,11.58
2023-03-21T21:56:49.343Z,13.11
2023-03-21T22:01:58.647Z,11.40
2023-03-21T22:07:03.261Z,13.10
2023-03-21T22:12:12.867Z,12.66
2023-03-21T22:17:17.316Z,12.07
2023-03-21T22:22:20.231Z,11.94
2023-03-21T22:27:24.648Z,11.73
2023-03-21T22:32:31.510Z,11.16
2023-03-21T22:37:41.071Z,11.52
2023-03-21T22:43:14.643Z,10.48
2023-03-21T22:48:20.237Z,11.72
2023-03-21T22:53:28.143Z,12.79
2023-03-21T22:58:32.351Z,11.16
2023-03-21T23:03:42.065Z,12.83
2023-03-21T23:08:49.193Z,12.80
2023-03-21T23:14:06.859Z,12.84
2023-03-21T23:25:03.115Z,11.06
2023-03-21T23:30:22.180Z,12.34
2023-03-21T23:35:36.064Z,10.45
2023-03-21T23:40:47.676Z,10.57
2023-03-21T23:45:58.172Z,12.73
2023-03-21T23:51:23.394Z,9.90
2023-03-21T23:56:32.621Z,10.70
